Tijucas Do Sul, Brazil
Current Conditions -  °F | °C
As of 9:00 AM on Wednesday 26 Nov 2014 (Local Time) from SBCT Reporting Station
Overcast Overcast  
Wind Chill: 68°   Ceiling: 800
Heat Index: 68°   Visibility: 6mi
Dew Point: 64°   Wind: 7mph
Humidity: 88%   Direction: 300°WNW
Pressure: 29.88"   Gusts: NA
Location:  25.93°S, 49.18°W
Report Text: SBCT 261100Z 30006KT 9999 BKN008 OVC015 20/18 Q1012
Loading
Personal Weather Stations






























Interactive Weather Map New forecast layout! Learn more

10-Day Weather Forecast

Advertisements
Track Severe Weather on mobile